createdAt,value
2022-09-26T00:01:06.435Z,27.00
2022-09-26T00:03:33.786Z,19.00
2022-09-26T00:08:54.324Z,23.50
2022-09-26T00:11:20.741Z,19.50
2022-09-26T00:13:48.122Z,20.00
2022-09-26T00:16:15.608Z,23.00
2022-09-26T00:18:42.095Z,23.50
2022-09-26T00:23:52.719Z,23.50
2022-09-26T00:26:20.100Z,23.00
2022-09-26T00:28:47.499Z,20.00
2022-09-26T00:31:13.996Z,23.50
2022-09-26T00:33:41.416Z,21.67
2022-09-26T00:38:51.823Z,23.50
2022-09-26T00:41:18.275Z,22.00
2022-09-26T00:43:44.599Z,1.00
2022-09-26T00:46:12.024Z,18.00
2022-09-26T00:48:38.515Z,24.00
2022-09-26T00:53:58.890Z,23.00
2022-09-26T00:56:25.346Z,23.50
2022-09-26T00:58:52.700Z,20.33
2022-09-26T01:01:19.223Z,19.50
2022-09-26T01:03:45.835Z,23.50
2022-09-26T01:09:06.205Z,22.50
2022-09-26T01:11:33.570Z,23.67
2022-09-26T01:14:00.028Z,21.00
2022-09-26T01:16:26.560Z,20.50
2022-09-26T01:18:53.960Z,22.00
2022-09-26T01:24:14.410Z,22.00
2022-09-26T01:26:40.863Z,21.50
2022-09-26T01:29:07.333Z,23.00
2022-09-26T01:31:33.807Z,23.00
2022-09-26T01:34:00.244Z,23.00
2022-09-26T01:39:20.614Z,23.00
2022-09-26T01:41:47.086Z,20.00
2022-09-26T01:44:13.551Z,24.00
2022-09-26T01:46:40.922Z,20.00
2022-09-26T01:49:07.383Z,19.00
2022-09-26T01:54:18.632Z,22.50
2022-09-26T01:56:46.010Z,21.33
2022-09-26T01:59:13.495Z,18.67
2022-09-26T02:01:40.029Z,19.00
2022-09-26T02:04:06.544Z,21.00
2022-09-26T02:09:18.106Z,20.00
2022-09-26T02:11:45.437Z,19.67
2022-09-26T02:14:11.836Z,16.00
2022-09-26T02:16:38.351Z,19.00
2022-09-26T02:19:04.864Z,21.50
2022-09-26T02:24:25.458Z,16.00
2022-09-26T02:26:51.888Z,20.50
2022-09-26T02:29:19.266Z,22.00
2022-09-26T02:31:45.744Z,22.00
2022-09-26T02:34:13.145Z,19.33
2022-09-26T02:39:35.359Z,23.67
2022-09-26T02:42:02.767Z,16.33
2022-09-26T02:44:29.235Z,20.50
2022-09-26T02:46:56.585Z,21.00
2022-09-26T02:49:23.042Z,24.50
2022-09-26T02:54:34.554Z,19.50
2022-09-26T02:57:01.974Z,19.67
2022-09-26T02:59:28.427Z,21.00
2022-09-26T03:01:54.854Z,20.50
2022-09-26T03:04:22.335Z,23.33
2022-09-26T03:09:35.799Z,22.67
2022-09-26T03:12:02.232Z,24.00
2022-09-26T03:14:28.770Z,25.00
2022-09-26T03:16:56.212Z,25.00
2022-09-26T03:19:22.712Z,26.50
2022-09-26T03:24:43.356Z,29.50
2022-09-26T03:27:10.729Z,23.00
2022-09-26T03:29:37.234Z,25.50
2022-09-26T03:32:04.653Z,22.67
2022-09-26T03:34:31.118Z,25.00
2022-09-26T03:39:51.536Z,23.00
2022-09-26T03:42:18.930Z,28.00
2022-09-26T03:44:45.373Z,24.50
2022-09-26T03:47:11.813Z,30.00
2022-09-26T03:49:38.256Z,30.00
2022-09-26T03:52:04.719Z,29.00
2022-09-26T03:54:31.197Z,23.00
2022-09-26T03:56:57.649Z,23.50
2022-09-26T03:59:24.097Z,27.50
2022-09-26T04:01:50.594Z,27.00
2022-09-26T04:04:17.092Z,29.00
2022-09-26T04:06:44.489Z,23.50
2022-09-26T04:09:16.549Z,25.00
2022-09-26T04:11:43.568Z,29.50
2022-09-26T04:14:10.013Z,33.00
2022-09-26T04:16:36.509Z,33.00
2022-09-26T04:19:02.978Z,30.00
2022-09-26T04:21:29.431Z,34.00
2022-09-26T04:23:56.783Z,26.50
2022-09-26T04:26:24.364Z,29.00
2022-09-26T04:28:51.093Z,32.00
2022-09-26T04:31:18.538Z,30.00
2022-09-26T04:33:45.040Z,30.00
2022-09-26T04:36:12.489Z,22.00
2022-09-26T04:38:38.969Z,24.50
2022-09-26T04:41:05.508Z,26.00
2022-09-26T04:43:32.003Z,23.00
2022-09-26T04:45:58.630Z,24.50
2022-09-26T04:48:25.248Z,26.00
2022-09-26T04:50:51.713Z,27.00
2022-09-26T04:53:19.133Z,25.50
2022-09-26T04:55:45.581Z,24.00
2022-09-26T04:58:12.941Z,27.00
2022-09-26T05:00:39.416Z,24.50
2022-09-26T05:03:06.801Z,19.33
2022-09-26T05:05:33.247Z,26.00
2022-09-26T05:07:59.685Z,25.00
2022-09-26T05:10:26.135Z,27.00
2022-09-26T05:12:53.488Z,26.50
2022-09-26T05:15:20.844Z,21.00
2022-09-26T05:17:48.243Z,29.67
2022-09-26T05:20:15.678Z,27.00
2022-09-26T05:22:42.118Z,30.00
2022-09-26T05:27:53.419Z,25.50
2022-09-26T05:30:20.772Z,31.00
2022-09-26T05:32:47.246Z,30.50
2022-09-26T05:35:13.720Z,33.50
2022-09-26T05:37:40.180Z,30.50
2022-09-26T05:42:50.554Z,32.00
2022-09-26T05:45:17.915Z,28.50
2022-09-26T05:47:44.388Z,27.00
2022-09-26T05:50:11.764Z,26.50
2022-09-26T05:52:38.231Z,31.50
2022-09-26T05:58:00.440Z,32.00
2022-09-26T06:00:26.891Z,32.00
2022-09-26T06:02:54.287Z,34.00
2022-09-26T06:05:21.682Z,34.00
2022-09-26T06:07:49.077Z,30.67
2022-09-26T06:13:11.290Z,33.50
2022-09-26T06:15:37.816Z,34.50
2022-09-26T06:18:04.335Z,32.00
2022-09-26T06:20:30.911Z,27.50
2022-09-26T06:22:57.351Z,29.00
2022-09-26T06:28:08.110Z,31.00
2022-09-26T06:30:35.492Z,32.33
2022-09-26T06:33:03.192Z,33.50
2022-09-26T06:35:29.831Z,33.00
2022-09-26T06:37:56.529Z,33.00
2022-09-26T06:43:17.895Z,32.00
2022-09-26T06:45:44.418Z,32.50
2022-09-26T06:48:11.821Z,33.50
2022-09-26T06:50:39.202Z,31.50
2022-09-26T06:53:11.739Z,34.50
2022-09-26T06:58:23.367Z,29.00
2022-09-26T07:00:49.896Z,31.50
2022-09-26T07:03:17.367Z,33.00
2022-09-26T07:05:44.738Z,28.67
2022-09-26T07:08:12.123Z,29.50
2022-09-26T07:13:22.597Z,32.00
2022-09-26T07:15:50.043Z,28.67
2022-09-26T07:18:17.499Z,28.50
2022-09-26T07:20:43.974Z,29.50
2022-09-26T07:23:11.414Z,22.50
2022-09-26T07:28:22.580Z,24.00
2022-09-26T07:30:49.948Z,28.50
2022-09-26T07:33:17.342Z,24.50
2022-09-26T07:35:44.705Z,26.00
2022-09-26T07:38:12.141Z,25.50
2022-09-26T07:43:42.802Z,24.50
2022-09-26T07:46:11.966Z,22.00
2022-09-26T07:48:38.532Z,21.00
2022-09-26T07:51:09.096Z,22.50
2022-09-26T07:53:36.805Z,23.67
2022-09-26T07:58:56.940Z,24.00
2022-09-26T08:01:23.510Z,25.50
2022-09-26T08:03:50.921Z,30.00
2022-09-26T08:06:18.367Z,31.00
2022-09-26T08:08:44.809Z,33.00
2022-09-26T08:14:07.372Z,31.00
2022-09-26T08:16:33.978Z,33.00
2022-09-26T08:19:00.512Z,30.00
2022-09-26T08:21:27.986Z,33.00
2022-09-26T08:23:54.427Z,27.50
2022-09-26T08:29:05.919Z,32.00
2022-09-26T08:31:32.408Z,37.00
2022-09-26T08:33:58.992Z,26.50
2022-09-26T08:36:25.544Z,30.50
2022-09-26T08:38:52.130Z,36.50
2022-09-26T08:44:02.882Z,33.50
2022-09-26T08:46:30.297Z,32.00
2022-09-26T08:48:57.717Z,39.33
2022-09-26T08:51:28.994Z,36.67
2022-09-26T08:53:56.891Z,33.00
2022-09-26T08:59:19.158Z,35.67
2022-09-26T09:01:45.734Z,36.00
2022-09-26T09:04:13.199Z,38.00
2022-09-26T09:06:39.651Z,40.00
2022-09-26T09:09:07.068Z,38.67
2022-09-26T09:14:28.359Z,38.50
2022-09-26T09:16:55.841Z,38.33
2022-09-26T09:19:23.254Z,39.00
2022-09-26T09:21:49.723Z,41.00
2022-09-26T09:24:16.248Z,38.00
2022-09-26T09:29:27.896Z,40.00
2022-09-26T09:31:54.357Z,43.00
2022-09-26T09:34:21.780Z,36.50
2022-09-26T09:36:49.182Z,37.67
2022-09-26T09:39:16.580Z,39.67
2022-09-26T09:44:40.999Z,39.67
2022-09-26T09:47:10.838Z,45.50
2022-09-26T09:49:37.331Z,36.00
2022-09-26T09:52:03.799Z,39.00
2022-09-26T09:54:31.202Z,36.33
2022-09-26T09:59:52.624Z,42.67
2022-09-26T10:02:20.080Z,37.00
2022-09-26T10:04:47.499Z,36.67
2022-09-26T10:07:13.950Z,39.50
2022-09-26T10:09:40.975Z,35.00
2022-09-26T10:14:51.264Z,35.50
2022-09-26T10:17:17.709Z,36.50
2022-09-26T10:19:44.181Z,37.00
2022-09-26T10:22:10.640Z,36.00
2022-09-26T10:24:37.106Z,34.00
2022-09-26T10:29:47.901Z,34.50
2022-09-26T10:32:15.315Z,30.50
2022-09-26T10:34:41.793Z,34.00
2022-09-26T10:37:08.271Z,32.00
2022-09-26T10:39:34.731Z,37.50
2022-09-26T10:44:55.415Z,33.50
2022-09-26T10:47:21.874Z,29.50
2022-09-26T10:49:48.320Z,30.00
2022-09-26T10:52:18.587Z,34.50
2022-09-26T10:54:46.374Z,31.00
2022-09-26T11:00:08.679Z,32.00
2022-09-26T11:02:35.135Z,28.50
2022-09-26T11:05:01.578Z,31.00
2022-09-26T11:07:28.029Z,33.00
2022-09-26T11:09:55.436Z,26.50
2022-09-26T11:15:15.825Z,25.50
2022-09-26T11:17:42.296Z,27.00
2022-09-26T11:20:08.760Z,23.00
2022-09-26T11:22:36.120Z,26.50
2022-09-26T11:25:03.496Z,25.00
2022-09-26T11:30:14.941Z,27.50
2022-09-26T11:32:41.431Z,27.50
2022-09-26T11:35:07.910Z,26.00
2022-09-26T11:37:35.310Z,28.33
2022-09-26T11:40:03.880Z,23.00
2022-09-26T11:45:19.541Z,25.50
2022-09-26T11:47:46.916Z,27.50
2022-09-26T11:50:13.366Z,25.50
2022-09-26T11:52:43.285Z,26.50
2022-09-26T11:55:11.984Z,23.00
2022-09-26T12:00:22.378Z,24.00
2022-09-26T12:02:48.902Z,22.00
2022-09-26T12:05:16.307Z,23.00
2022-09-26T12:07:43.710Z,23.00
2022-09-26T12:10:11.068Z,24.50
2022-09-26T12:15:31.723Z,21.00
2022-09-26T12:17:58.213Z,24.00
2022-09-26T12:20:24.679Z,24.50
2022-09-26T12:22:51.133Z,23.50
2022-09-26T12:25:20.321Z,25.00
2022-09-26T12:30:42.241Z,25.00
2022-09-26T12:33:08.857Z,29.00
2022-09-26T12:35:36.233Z,23.00
2022-09-26T12:38:02.727Z,24.50
2022-09-26T12:40:29.250Z,26.00
2022-09-26T12:45:39.785Z,26.50
2022-09-26T12:48:07.136Z,23.50
2022-09-26T12:50:34.516Z,25.00
2022-09-26T12:53:00.982Z,25.00
2022-09-26T12:55:27.519Z,24.50
2022-09-26T13:00:39.115Z,29.00
2022-09-26T13:03:05.620Z,28.00
2022-09-26T13:05:32.280Z,26.00
2022-09-26T13:07:58.747Z,26.00
2022-09-26T13:10:25.200Z,29.00
2022-09-26T13:15:45.758Z,30.00
2022-09-26T13:18:13.319Z,26.00
2022-09-26T13:20:39.774Z,31.00
2022-09-26T13:23:06.235Z,29.50
2022-09-26T13:25:32.692Z,29.00
2022-09-26T13:30:43.205Z,30.00
2022-09-26T13:33:10.619Z,29.00
2022-09-26T13:35:37.071Z,31.00
2022-09-26T13:38:08.051Z,29.50
2022-09-26T13:40:34.925Z,33.00
2022-09-26T13:43:03.077Z,32.00
2022-09-26T13:45:29.786Z,31.50
2022-09-26T13:47:56.239Z,31.00
2022-09-26T13:50:22.883Z,30.50
2022-09-26T13:52:50.274Z,32.33
2022-09-26T13:55:16.722Z,28.00
2022-09-26T13:57:43.189Z,32.00
2022-09-26T14:00:10.569Z,30.33
2022-09-26T14:02:37.162Z,32.50
2022-09-26T14:05:03.688Z,33.00
2022-09-26T14:07:30.169Z,29.50
2022-09-26T14:09:56.619Z,31.00
2022-09-26T14:12:23.072Z,28.00
2022-09-26T14:14:49.528Z,29.50
2022-09-26T14:17:20.085Z,31.00
2022-09-26T14:19:46.845Z,35.00
2022-09-26T14:22:13.312Z,30.50
2022-09-26T14:24:39.758Z,31.00
2022-09-26T14:27:06.392Z,33.00
2022-09-26T14:29:32.865Z,31.00
2022-09-26T14:32:00.257Z,32.33
2022-09-26T14:34:27.657Z,35.33
2022-09-26T14:36:54.112Z,31.50
2022-09-26T14:39:21.491Z,33.00
2022-09-26T14:41:47.951Z,32.00
2022-09-26T14:44:15.493Z,32.50
2022-09-26T14:46:42.105Z,30.00
2022-09-26T14:49:08.677Z,32.50
2022-09-26T14:51:35.140Z,30.00
2022-09-26T14:54:01.794Z,30.50
2022-09-26T14:56:28.240Z,31.00
2022-09-26T14:58:54.713Z,33.50
2022-09-26T15:04:16.129Z,32.00
2022-09-26T15:06:43.532Z,32.50
2022-09-26T15:09:10.034Z,33.00
2022-09-26T15:11:36.515Z,33.00
2022-09-26T15:14:02.974Z,33.50
2022-09-26T15:19:23.521Z,31.50
2022-09-26T15:21:50.886Z,30.67
2022-09-26T15:24:18.250Z,32.50
2022-09-26T15:26:44.719Z,29.50
2022-09-26T15:29:12.091Z,31.00
2022-09-26T15:34:32.457Z,33.00
2022-09-26T15:36:58.937Z,27.00
2022-09-26T15:39:25.399Z,31.00
2022-09-26T15:41:51.857Z,29.00
2022-09-26T15:44:19.228Z,29.00
2022-09-26T15:49:39.579Z,31.00
2022-09-26T15:52:06.049Z,27.00
2022-09-26T15:54:32.521Z,24.50
2022-09-26T15:56:59.900Z,25.00
2022-09-26T15:59:26.373Z,29.50
2022-09-26T16:04:37.930Z,26.50
2022-09-26T16:07:04.394Z,21.00
2022-09-26T16:09:30.839Z,22.50
2022-09-26T16:11:57.281Z,19.50
2022-09-26T16:14:23.728Z,24.00
2022-09-26T16:19:45.561Z,23.00
2022-09-26T16:22:12.014Z,23.50
2022-09-26T16:24:38.439Z,18.00
2022-09-26T16:27:05.852Z,17.00
2022-09-26T16:29:33.332Z,18.00
2022-09-26T16:34:54.658Z,18.00
2022-09-26T16:37:21.986Z,16.67
2022-09-26T16:39:49.275Z,14.67
2022-09-26T16:42:15.753Z,19.00
2022-09-26T16:44:43.108Z,18.33
2022-09-26T16:50:04.285Z,18.00
2022-09-26T16:52:31.640Z,15.67
2022-09-26T16:54:58.083Z,17.50
2022-09-26T16:57:25.418Z,16.00
2022-09-26T16:59:51.841Z,16.50
2022-09-26T17:05:12.369Z,20.00
2022-09-26T17:07:38.839Z,20.00
2022-09-26T17:10:06.208Z,19.67
2022-09-26T17:12:33.560Z,15.67
2022-09-26T17:15:00.907Z,20.33
2022-09-26T17:20:23.146Z,19.33
2022-09-26T17:22:49.782Z,21.50
2022-09-26T17:25:16.236Z,21.00
2022-09-26T17:27:43.601Z,22.00
2022-09-26T17:30:10.118Z,22.00
2022-09-26T17:35:21.456Z,22.50
2022-09-26T17:37:48.003Z,22.50
2022-09-26T17:40:14.664Z,20.00
2022-09-26T17:42:42.163Z,23.00
2022-09-26T17:45:08.930Z,21.00
2022-09-26T17:50:29.460Z,25.50
2022-09-26T17:52:55.943Z,22.00
2022-09-26T17:55:22.447Z,23.00
2022-09-26T17:57:48.914Z,21.50
2022-09-26T18:00:16.456Z,22.00
2022-09-26T18:05:36.856Z,23.00
2022-09-26T18:08:03.389Z,24.00
2022-09-26T18:10:32.388Z,22.00
2022-09-26T18:12:58.965Z,21.50
2022-09-26T18:15:25.640Z,20.00
2022-09-26T18:20:47.277Z,21.50
2022-09-26T18:23:14.056Z,20.00
2022-09-26T18:25:41.791Z,21.00
2022-09-26T18:28:09.230Z,22.33
2022-09-26T18:30:36.739Z,19.67
2022-09-26T18:35:58.283Z,17.33
2022-09-26T18:38:24.911Z,18.50
2022-09-26T18:40:51.600Z,17.00
2022-09-26T18:43:18.216Z,18.00
2022-09-26T18:45:45.853Z,18.33
2022-09-26T18:51:07.086Z,15.00
2022-09-26T18:53:35.064Z,19.33
2022-09-26T18:56:01.617Z,23.00
2022-09-26T18:58:28.966Z,15.00
2022-09-26T19:00:55.473Z,19.00
2022-09-26T19:06:15.996Z,17.00
2022-09-26T19:08:42.538Z,12.50
2022-09-26T19:11:09.110Z,17.00
2022-09-26T19:13:35.991Z,17.00
2022-09-26T19:16:02.591Z,16.00
2022-09-26T19:21:13.163Z,19.00
2022-09-26T19:23:40.474Z,16.67
2022-09-26T19:26:07.874Z,18.33
2022-09-26T19:28:35.275Z,17.33
2022-09-26T19:31:02.889Z,19.00
2022-09-26T19:36:13.479Z,18.00
2022-09-26T19:38:40.886Z,18.00
2022-09-26T19:41:08.459Z,22.00
2022-09-26T19:43:35.913Z,15.33
2022-09-26T19:46:02.606Z,15.50
2022-09-26T19:51:14.270Z,15.00
2022-09-26T19:53:41.605Z,17.67
2022-09-26T19:56:08.066Z,19.00
2022-09-26T19:58:35.461Z,17.00
2022-09-26T20:01:02.798Z,14.67
2022-09-26T20:06:24.145Z,17.00
2022-09-26T20:08:50.581Z,16.00
2022-09-26T20:11:17.000Z,20.00
2022-09-26T20:13:43.470Z,19.00
2022-09-26T20:16:09.870Z,13.50
2022-09-26T20:21:21.475Z,17.00
2022-09-26T20:23:48.748Z,13.33
2022-09-26T20:26:15.999Z,14.00
2022-09-26T20:28:42.387Z,12.00
2022-09-26T20:31:09.736Z,13.00
2022-09-26T20:36:20.021Z,12.00
2022-09-26T20:38:46.502Z,12.50
2022-09-26T20:41:13.782Z,11.50
2022-09-26T20:43:40.292Z,10.00
2022-09-26T20:46:06.814Z,9.50
2022-09-26T20:51:27.360Z,8.00
2022-09-26T20:53:53.740Z,9.00
2022-09-26T20:56:20.110Z,8.00
2022-09-26T20:58:46.492Z,9.00
2022-09-26T21:01:13.721Z,9.50
2022-09-26T21:06:34.226Z,9.50
2022-09-26T21:09:04.154Z,10.57
2022-09-26T21:11:31.388Z,8.50
2022-09-26T21:14:00.517Z,9.17
2022-09-26T21:16:26.948Z,7.33
2022-09-26T21:21:37.889Z,9.00
2022-09-26T21:24:05.163Z,9.50
2022-09-26T21:26:31.498Z,7.67
2022-09-26T21:28:57.827Z,7.33
2022-09-26T21:31:24.217Z,8.00
2022-09-26T21:36:44.343Z,6.00
2022-09-26T21:39:11.538Z,9.00
2022-09-26T21:41:38.797Z,7.75
2022-09-26T21:44:07.890Z,7.17
2022-09-26T21:46:35.161Z,7.00
2022-09-26T21:51:55.090Z,7.67
2022-09-26T21:54:21.425Z,6.00
2022-09-26T21:56:47.770Z,7.00
2022-09-26T21:59:15.115Z,7.75
2022-09-26T22:01:42.443Z,7.50
2022-09-26T22:06:52.883Z,7.67
2022-09-26T22:09:19.220Z,6.67
2022-09-26T22:11:45.546Z,7.33
2022-09-26T22:14:12.754Z,7.00
2022-09-26T22:16:39.213Z,6.00
2022-09-26T22:21:49.372Z,6.33
2022-09-26T22:24:16.624Z,5.25
2022-09-26T22:26:42.972Z,6.00
2022-09-26T22:29:10.237Z,5.25
2022-09-26T22:31:36.588Z,6.00
2022-09-26T22:36:56.550Z,4.00
2022-09-26T22:39:22.895Z,5.00
2022-09-26T22:41:49.231Z,5.00
2022-09-26T22:44:16.482Z,4.00
2022-09-26T22:46:42.850Z,5.67
2022-09-26T22:51:54.229Z,4.00
2022-09-26T22:54:20.620Z,6.00
2022-09-26T22:56:46.966Z,6.00
2022-09-26T22:59:13.308Z,5.33
2022-09-26T23:01:39.723Z,6.00
2022-09-26T23:06:49.971Z,6.00
2022-09-26T23:09:16.450Z,5.00
2022-09-26T23:11:42.845Z,5.67
2022-09-26T23:14:09.197Z,5.00
2022-09-26T23:16:35.578Z,5.00
2022-09-26T23:21:55.806Z,6.00
2022-09-26T23:24:22.154Z,5.33
2022-09-26T23:26:48.486Z,4.00
2022-09-26T23:29:15.848Z,13.50
2022-09-26T23:31:42.305Z,12.00
2022-09-26T23:37:02.589Z,15.50
2022-09-26T23:39:29.056Z,13.00
2022-09-26T23:41:55.455Z,10.00
2022-09-26T23:44:21.848Z,8.50
2022-09-26T23:46:49.055Z,8.00
2022-09-26T23:51:59.440Z,7.00
2022-09-26T23:54:26.642Z,6.75
2022-09-26T23:56:53.018Z,7.00
2022-09-26T23:59:19.349Z,8.00
